sensor_id;sensor_type;location;lat;lon;timestamp;temperature;humidity
23079;DHT22;11707;50.830;4.364;2023-04-01T00:01:11;9.50;99.90
23079;DHT22;11707;50.830;4.364;2023-04-01T00:03:39;9.40;99.90
23079;DHT22;11707;50.830;4.364;2023-04-01T00:06:05;9.50;99.90
23079;DHT22;11707;50.830;4.364;2023-04-01T00:08:31;9.40;99.90
23079;DHT22;11707;50.830;4.364;2023-04-01T00:10:57;9.40;99.90
23079;DHT22;11707;50.830;4.364;2023-04-01T00:13:24;9.40;99.90
23079;DHT22;11707;50.830;4.364;2023-04-01T00:15:51;9.40;99.90
23079;DHT22;11707;50.830;4.364;2023-04-01T00:18:17;9.40;99.90
23079;DHT22;11707;50.830;4.364;2023-04-01T00:20:46;9.40;99.90
23079;DHT22;11707;50.830;4.364;2023-04-01T00:23:13;9.40;99.90
23079;DHT22;11707;50.830;4.364;2023-04-01T00:25:39;9.40;99.90
23079;DHT22;11707;50.830;4.364;2023-04-01T00:28:05;9.40;99.90
23079;DHT22;11707;50.830;4.364;2023-04-01T00:30:31;9.40;99.90
23079;DHT22;11707;50.830;4.364;2023-04-01T00:32:59;9.40;99.90
23079;DHT22;11707;50.830;4.364;2023-04-01T00:35:25;9.50;99.90
23079;DHT22;11707;50.830;4.364;2023-04-01T00:37:54;9.40;99.90
23079;DHT22;11707;50.830;4.364;2023-04-01T00:40:30;9.40;99.90
23079;DHT22;11707;50.830;4.364;2023-04-01T00:42:57;9.40;99.90
23079;DHT22;11707;50.830;4.364;2023-04-01T00:45:35;9.30;99.90
23079;DHT22;11707;50.830;4.364;2023-04-01T00:50:44;9.30;99.90
23079;DHT22;11707;50.830;4.364;2023-04-01T00:53:10;9.40;99.90
23079;DHT22;11707;50.830;4.364;2023-04-01T00:55:40;9.40;99.90
23079;DHT22;11707;50.830;4.364;2023-04-01T00:58:10;9.30;99.90
23079;DHT22;11707;50.830;4.364;2023-04-01T01:00:39;9.30;99.90
23079;DHT22;11707;50.830;4.364;2023-04-01T01:03:05;9.30;99.90
23079;DHT22;11707;50.830;4.364;2023-04-01T01:05:52;9.40;99.90
23079;DHT22;11707;50.830;4.364;2023-04-01T01:08:35;9.40;99.90
23079;DHT22;11707;50.830;4.364;2023-04-01T01:11:05;9.30;99.90
23079;DHT22;11707;50.830;4.364;2023-04-01T01:13:58;9.30;99.90
23079;DHT22;11707;50.830;4.364;2023-04-01T01:16:29;9.30;99.90
23079;DHT22;11707;50.830;4.364;2023-04-01T01:19:20;9.30;99.90
23079;DHT22;11707;50.830;4.364;2023-04-01T01:24:53;9.30;99.90
23079;DHT22;11707;50.830;4.364;2023-04-01T01:27:22;9.30;99.90
23079;DHT22;11707;50.830;4.364;2023-04-01T01:32:59;9.40;99.90
23079;DHT22;11707;50.830;4.364;2023-04-01T01:38:35;9.40;99.90
23079;DHT22;11707;50.830;4.364;2023-04-01T01:41:03;9.40;99.90
23079;DHT22;11707;50.830;4.364;2023-04-01T01:43:39;9.30;99.90
23079;DHT22;11707;50.830;4.364;2023-04-01T01:46:12;9.40;99.90
23079;DHT22;11707;50.830;4.364;2023-04-01T01:48:42;9.30;99.90
23079;DHT22;11707;50.830;4.364;2023-04-01T01:51:09;9.30;99.90
23079;DHT22;11707;50.830;4.364;2023-04-01T01:53:35;9.30;99.90
23079;DHT22;11707;50.830;4.364;2023-04-01T01:56:01;9.30;99.90
23079;DHT22;11707;50.830;4.364;2023-04-01T01:58:33;9.30;99.90
23079;DHT22;11707;50.830;4.364;2023-04-01T02:01:12;9.30;99.90
23079;DHT22;11707;50.830;4.364;2023-04-01T02:03:39;9.30;99.90
23079;DHT22;11707;50.830;4.364;2023-04-01T02:06:09;9.30;99.90
23079;DHT22;11707;50.830;4.364;2023-04-01T02:08:42;9.30;99.90
23079;DHT22;11707;50.830;4.364;2023-04-01T02:11:13;9.30;99.90
23079;DHT22;11707;50.830;4.364;2023-04-01T02:14:05;9.30;99.90
23079;DHT22;11707;50.830;4.364;2023-04-01T02:16:44;9.30;99.90
23079;DHT22;11707;50.830;4.364;2023-04-01T02:19:15;9.20;99.90
23079;DHT22;11707;50.830;4.364;2023-04-01T02:21:58;9.20;99.90
23079;DHT22;11707;50.830;4.364;2023-04-01T02:24:26;9.20;99.90
23079;DHT22;11707;50.830;4.364;2023-04-01T02:26:53;9.20;99.90
23079;DHT22;11707;50.830;4.364;2023-04-01T02:29:24;9.20;99.90
23079;DHT22;11707;50.830;4.364;2023-04-01T02:31:53;9.20;99.90
23079;DHT22;11707;50.830;4.364;2023-04-01T02:34:21;9.20;99.90
23079;DHT22;11707;50.830;4.364;2023-04-01T02:36:49;9.20;99.90
23079;DHT22;11707;50.830;4.364;2023-04-01T02:39:15;9.20;99.90
23079;DHT22;11707;50.830;4.364;2023-04-01T02:41:43;9.20;99.90
23079;DHT22;11707;50.830;4.364;2023-04-01T02:44:11;9.20;99.90
23079;DHT22;11707;50.830;4.364;2023-04-01T02:46:37;9.10;99.90
23079;DHT22;11707;50.830;4.364;2023-04-01T02:49:03;9.10;99.90
23079;DHT22;11707;50.830;4.364;2023-04-01T02:51:32;9.20;99.90
23079;DHT22;11707;50.830;4.364;2023-04-01T02:53:58;9.20;99.90
23079;DHT22;11707;50.830;4.364;2023-04-01T02:56:24;9.10;99.90
23079;DHT22;11707;50.830;4.364;2023-04-01T02:58:51;9.10;99.90
23079;DHT22;11707;50.830;4.364;2023-04-01T03:01:16;9.10;99.90
23079;DHT22;11707;50.830;4.364;2023-04-01T03:03:42;9.10;99.90
23079;DHT22;11707;50.830;4.364;2023-04-01T03:06:10;9.10;99.90
23079;DHT22;11707;50.830;4.364;2023-04-01T03:08:36;9.10;99.90
23079;DHT22;11707;50.830;4.364;2023-04-01T03:11:02;9.10;99.90
23079;DHT22;11707;50.830;4.364;2023-04-01T03:13:28;9.10;99.90
23079;DHT22;11707;50.830;4.364;2023-04-01T03:15:54;9.10;99.90
23079;DHT22;11707;50.830;4.364;2023-04-01T03:18:22;9.10;99.90
23079;DHT22;11707;50.830;4.364;2023-04-01T03:20:47;9.00;99.90
23079;DHT22;11707;50.830;4.364;2023-04-01T03:23:13;9.10;99.90
23079;DHT22;11707;50.830;4.364;2023-04-01T03:25:42;9.10;99.90
23079;DHT22;11707;50.830;4.364;2023-04-01T03:28:08;9.10;99.90
23079;DHT22;11707;50.830;4.364;2023-04-01T03:30:36;9.10;99.90
23079;DHT22;11707;50.830;4.364;2023-04-01T03:33:02;9.10;99.90
23079;DHT22;11707;50.830;4.364;2023-04-01T03:35:28;9.10;99.90
23079;DHT22;11707;50.830;4.364;2023-04-01T03:37:54;9.00;99.90
23079;DHT22;11707;50.830;4.364;2023-04-01T03:40:21;9.00;99.90
23079;DHT22;11707;50.830;4.364;2023-04-01T03:42:47;9.00;99.90
23079;DHT22;11707;50.830;4.364;2023-04-01T03:45:13;9.00;99.90
23079;DHT22;11707;50.830;4.364;2023-04-01T03:47:44;9.00;99.90
23079;DHT22;11707;50.830;4.364;2023-04-01T03:50:12;9.00;99.90
23079;DHT22;11707;50.830;4.364;2023-04-01T03:52:37;9.10;99.90
23079;DHT22;11707;50.830;4.364;2023-04-01T03:55:04;9.10;99.90
23079;DHT22;11707;50.830;4.364;2023-04-01T03:57:33;9.00;99.90
23079;DHT22;11707;50.830;4.364;2023-04-01T03:59:58;9.00;99.90
23079;DHT22;11707;50.830;4.364;2023-04-01T04:02:24;9.00;99.90
23079;DHT22;11707;50.830;4.364;2023-04-01T04:04:50;9.00;99.90
23079;DHT22;11707;50.830;4.364;2023-04-01T04:07:15;9.00;99.90
23079;DHT22;11707;50.830;4.364;2023-04-01T04:09:41;9.00;99.90
23079;DHT22;11707;50.830;4.364;2023-04-01T04:12:09;9.00;99.90
23079;DHT22;11707;50.830;4.364;2023-04-01T04:14:35;9.00;99.90
23079;DHT22;11707;50.830;4.364;2023-04-01T04:17:01;9.00;99.90
23079;DHT22;11707;50.830;4.364;2023-04-01T04:19:26;9.00;99.90
23079;DHT22;11707;50.830;4.364;2023-04-01T04:21:52;9.00;99.90
23079;DHT22;11707;50.830;4.364;2023-04-01T04:24:20;9.00;99.90
23079;DHT22;11707;50.830;4.364;2023-04-01T04:26:46;9.00;99.90
23079;DHT22;11707;50.830;4.364;2023-04-01T04:29:12;9.00;99.90
23079;DHT22;11707;50.830;4.364;2023-04-01T04:31:37;9.00;99.90
23079;DHT22;11707;50.830;4.364;2023-04-01T04:34:03;9.00;99.90
23079;DHT22;11707;50.830;4.364;2023-04-01T04:36:32;8.90;99.90
23079;DHT22;11707;50.830;4.364;2023-04-01T04:38:57;8.90;99.90
23079;DHT22;11707;50.830;4.364;2023-04-01T04:41:27;8.90;99.90
23079;DHT22;11707;50.830;4.364;2023-04-01T04:43:55;8.90;99.90
23079;DHT22;11707;50.830;4.364;2023-04-01T04:46:21;8.90;99.90
23079;DHT22;11707;50.830;4.364;2023-04-01T04:48:47;9.00;99.90
23079;DHT22;11707;50.830;4.364;2023-04-01T04:51:18;9.00;99.90
23079;DHT22;11707;50.830;4.364;2023-04-01T04:53:44;9.00;99.90
23079;DHT22;11707;50.830;4.364;2023-04-01T04:56:13;8.90;99.90
23079;DHT22;11707;50.830;4.364;2023-04-01T04:58:42;8.90;99.90
23079;DHT22;11707;50.830;4.364;2023-04-01T05:01:12;8.90;99.90
23079;DHT22;11707;50.830;4.364;2023-04-01T05:03:39;8.90;99.90
23079;DHT22;11707;50.830;4.364;2023-04-01T05:06:05;8.90;99.90
23079;DHT22;11707;50.830;4.364;2023-04-01T05:08:31;8.90;99.90
23079;DHT22;11707;50.830;4.364;2023-04-01T05:10:58;8.90;99.90
23079;DHT22;11707;50.830;4.364;2023-04-01T05:13:24;8.90;99.90
23079;DHT22;11707;50.830;4.364;2023-04-01T05:15:53;8.90;99.90
23079;DHT22;11707;50.830;4.364;2023-04-01T05:18:19;8.90;99.90
23079;DHT22;11707;50.830;4.364;2023-04-01T05:20:50;8.80;99.90
23079;DHT22;11707;50.830;4.364;2023-04-01T05:23:16;8.80;99.90
23079;DHT22;11707;50.830;4.364;2023-04-01T05:25:42;8.90;99.90
23079;DHT22;11707;50.830;4.364;2023-04-01T05:28:08;8.90;99.90
23079;DHT22;11707;50.830;4.364;2023-04-01T05:30:33;8.90;99.90
23079;DHT22;11707;50.830;4.364;2023-04-01T05:32:59;8.90;99.90
23079;DHT22;11707;50.830;4.364;2023-04-01T05:35:25;8.90;99.90
23079;DHT22;11707;50.830;4.364;2023-04-01T05:37:53;8.90;99.90
23079;DHT22;11707;50.830;4.364;2023-04-01T05:40:19;8.90;99.90
23079;DHT22;11707;50.830;4.364;2023-04-01T05:42:44;8.90;99.90
23079;DHT22;11707;50.830;4.364;2023-04-01T05:45:12;8.90;99.90
23079;DHT22;11707;50.830;4.364;2023-04-01T05:47:40;8.90;99.90
23079;DHT22;11707;50.830;4.364;2023-04-01T05:50:08;8.90;99.90
23079;DHT22;11707;50.830;4.364;2023-04-01T05:52:34;8.90;99.90
23079;DHT22;11707;50.830;4.364;2023-04-01T05:55:00;8.90;99.90
23079;DHT22;11707;50.830;4.364;2023-04-01T05:57:26;8.90;99.90
23079;DHT22;11707;50.830;4.364;2023-04-01T05:59:52;8.90;99.90
23079;DHT22;11707;50.830;4.364;2023-04-01T06:02:18;8.90;99.90
23079;DHT22;11707;50.830;4.364;2023-04-01T06:04:44;8.90;99.90
23079;DHT22;11707;50.830;4.364;2023-04-01T06:07:15;8.90;99.90
23079;DHT22;11707;50.830;4.364;2023-04-01T06:09:42;8.90;99.90
23079;DHT22;11707;50.830;4.364;2023-04-01T06:20:08;8.80;99.90
23079;DHT22;11707;50.830;4.364;2023-04-01T06:25:21;8.80;99.90
23079;DHT22;11707;50.830;4.364;2023-04-01T06:39:39;8.80;99.90
23079;DHT22;11707;50.830;4.364;2023-04-01T06:42:23;8.80;99.90
23079;DHT22;11707;50.830;4.364;2023-04-01T06:53:14;8.90;99.90
23079;DHT22;11707;50.830;4.364;2023-04-01T06:55:44;8.90;99.90
23079;DHT22;11707;50.830;4.364;2023-04-01T06:58:23;8.90;99.90
23079;DHT22;11707;50.830;4.364;2023-04-01T07:00:57;8.90;99.90
23079;DHT22;11707;50.830;4.364;2023-04-01T07:03:32;8.80;99.90
23079;DHT22;11707;50.830;4.364;2023-04-01T07:06:06;8.90;99.90
23079;DHT22;11707;50.830;4.364;2023-04-01T07:08:36;8.80;99.90
23079;DHT22;11707;50.830;4.364;2023-04-01T07:11:09;8.90;99.90
23079;DHT22;11707;50.830;4.364;2023-04-01T07:13:49;8.90;99.90
23079;DHT22;11707;50.830;4.364;2023-04-01T07:16:26;8.90;99.90
23079;DHT22;11707;50.830;4.364;2023-04-01T07:19:01;8.90;99.90
23079;DHT22;11707;50.830;4.364;2023-04-01T07:22:16;8.90;99.90
23079;DHT22;11707;50.830;4.364;2023-04-01T07:24:26;8.90;99.90
23079;DHT22;11707;50.830;4.364;2023-04-01T07:26:56;8.90;99.90
23079;DHT22;11707;50.830;4.364;2023-04-01T07:29:26;8.90;99.90
23079;DHT22;11707;50.830;4.364;2023-04-01T07:53:40;9.00;99.90
23079;DHT22;11707;50.830;4.364;2023-04-01T07:56:32;8.90;99.90
23079;DHT22;11707;50.830;4.364;2023-04-01T07:59:19;8.90;99.90
23079;DHT22;11707;50.830;4.364;2023-04-01T08:07:20;9.00;99.90
23079;DHT22;11707;50.830;4.364;2023-04-01T08:10:09;8.90;99.90
23079;DHT22;11707;50.830;4.364;2023-04-01T08:15:44;8.90;99.90
23079;DHT22;11707;50.830;4.364;2023-04-01T08:18:32;8.90;99.90
23079;DHT22;11707;50.830;4.364;2023-04-01T08:21:02;8.90;99.90
23079;DHT22;11707;50.830;4.364;2023-04-01T08:23:47;8.90;99.90
23079;DHT22;11707;50.830;4.364;2023-04-01T08:29:14;9.00;99.90
23079;DHT22;11707;50.830;4.364;2023-04-01T08:34:37;9.00;99.90
23079;DHT22;11707;50.830;4.364;2023-04-01T08:37:21;8.90;99.90
23079;DHT22;11707;50.830;4.364;2023-04-01T08:43:15;9.00;99.90
23079;DHT22;11707;50.830;4.364;2023-04-01T08:51:11;9.00;99.90
23079;DHT22;11707;50.830;4.364;2023-04-01T09:09:59;9.10;99.90
23079;DHT22;11707;50.830;4.364;2023-04-01T09:18:25;9.10;99.90
23079;DHT22;11707;50.830;4.364;2023-04-01T09:34:53;9.20;99.90
23079;DHT22;11707;50.830;4.364;2023-04-01T09:40:17;9.40;99.90
23079;DHT22;11707;50.830;4.364;2023-04-01T09:45:47;9.40;99.90
23079;DHT22;11707;50.830;4.364;2023-04-01T09:51:22;9.40;99.90
23079;DHT22;11707;50.830;4.364;2023-04-01T09:56:47;9.40;99.90
23079;DHT22;11707;50.830;4.364;2023-04-01T10:05:27;9.50;99.90
23079;DHT22;11707;50.830;4.364;2023-04-01T10:08:29;9.50;99.90
23079;DHT22;11707;50.830;4.364;2023-04-01T10:11:29;9.50;99.90
23079;DHT22;11707;50.830;4.364;2023-04-01T10:14:19;9.50;99.90
23079;DHT22;11707;50.830;4.364;2023-04-01T10:19:39;9.40;99.90
23079;DHT22;11707;50.830;4.364;2023-04-01T10:25:27;9.30;99.90
23079;DHT22;11707;50.830;4.364;2023-04-01T10:28:20;9.40;99.90
23079;DHT22;11707;50.830;4.364;2023-04-01T10:45:31;9.50;99.90
23079;DHT22;11707;50.830;4.364;2023-04-01T10:48:28;9.50;99.90
23079;DHT22;11707;50.830;4.364;2023-04-01T10:51:27;9.60;99.90
23079;DHT22;11707;50.830;4.364;2023-04-01T10:54:20;9.60;99.90
23079;DHT22;11707;50.830;4.364;2023-04-01T10:56:59;9.60;99.90
23079;DHT22;11707;50.830;4.364;2023-04-01T11:08:23;9.60;99.90
23079;DHT22;11707;50.830;4.364;2023-04-01T11:27:35;9.60;99.90
23079;DHT22;11707;50.830;4.364;2023-04-01T11:35:20;9.80;99.90
23079;DHT22;11707;50.830;4.364;2023-04-01T11:43:42;9.60;99.90
23079;DHT22;11707;50.830;4.364;2023-04-01T11:47:27;9.50;99.90
23079;DHT22;11707;50.830;4.364;2023-04-01T12:03:37;9.50;99.90
23079;DHT22;11707;50.830;4.364;2023-04-01T12:06:16;9.60;99.90
23079;DHT22;11707;50.830;4.364;2023-04-01T12:09:20;9.70;99.90
23079;DHT22;11707;50.830;4.364;2023-04-01T12:14:32;9.80;99.90
23079;DHT22;11707;50.830;4.364;2023-04-01T12:17:31;9.70;99.90
23079;DHT22;11707;50.830;4.364;2023-04-01T12:20:22;9.70;99.90
23079;DHT22;11707;50.830;4.364;2023-04-01T12:23:08;9.70;99.90
23079;DHT22;11707;50.830;4.364;2023-04-01T12:31:13;9.70;99.90
23079;DHT22;11707;50.830;4.364;2023-04-01T12:42:13;9.60;99.90
23079;DHT22;11707;50.830;4.364;2023-04-01T12:45:17;9.60;99.90
23079;DHT22;11707;50.830;4.364;2023-04-01T13:23:34;9.30;99.90
23079;DHT22;11707;50.830;4.364;2023-04-01T13:26:20;9.30;99.90
23079;DHT22;11707;50.830;4.364;2023-04-01T13:29:34;9.30;99.90
23079;DHT22;11707;50.830;4.364;2023-04-01T13:31:38;9.30;99.90
23079;DHT22;11707;50.830;4.364;2023-04-01T13:34:43;9.30;99.90
23079;DHT22;11707;50.830;4.364;2023-04-01T13:40:26;9.30;99.90
23079;DHT22;11707;50.830;4.364;2023-04-01T13:43:01;9.20;99.90
23079;DHT22;11707;50.830;4.364;2023-04-01T13:57:20;9.30;99.90
23079;DHT22;11707;50.830;4.364;2023-04-01T14:03:01;9.40;99.90
23079;DHT22;11707;50.830;4.364;2023-04-01T14:13:51;9.40;99.90
23079;DHT22;11707;50.830;4.364;2023-04-01T14:16:29;9.50;99.90
23079;DHT22;11707;50.830;4.364;2023-04-01T14:28:06;9.40;99.90
23079;DHT22;11707;50.830;4.364;2023-04-01T14:30:42;9.50;99.90
23079;DHT22;11707;50.830;4.364;2023-04-01T14:39:15;9.30;99.90
23079;DHT22;11707;50.830;4.364;2023-04-01T14:52:52;9.20;99.90
23079;DHT22;11707;50.830;4.364;2023-04-01T14:55:25;9.30;99.90
23079;DHT22;11707;50.830;4.364;2023-04-01T14:58:20;9.50;99.90
23079;DHT22;11707;50.830;4.364;2023-04-01T15:01:13;9.40;99.90
23079;DHT22;11707;50.830;4.364;2023-04-01T15:04:10;9.30;99.90
23079;DHT22;11707;50.830;4.364;2023-04-01T15:14:43;9.30;99.90
23079;DHT22;11707;50.830;4.364;2023-04-01T15:17:43;9.20;99.90
23079;DHT22;11707;50.830;4.364;2023-04-01T15:20:32;9.20;99.90
23079;DHT22;11707;50.830;4.364;2023-04-01T15:23:13;9.20;99.90
23079;DHT22;11707;50.830;4.364;2023-04-01T15:31:33;9.10;99.90
23079;DHT22;11707;50.830;4.364;2023-04-01T15:37:02;9.20;99.90
23079;DHT22;11707;50.830;4.364;2023-04-01T15:40:03;9.20;99.90
23079;DHT22;11707;50.830;4.364;2023-04-01T15:42:43;9.20;99.90
23079;DHT22;11707;50.830;4.364;2023-04-01T15:45:25;9.10;99.90
23079;DHT22;11707;50.830;4.364;2023-04-01T15:48:40;9.10;99.90
23079;DHT22;11707;50.830;4.364;2023-04-01T15:54:00;9.10;99.90
23079;DHT22;11707;50.830;4.364;2023-04-01T15:56:54;9.10;99.90
23079;DHT22;11707;50.830;4.364;2023-04-01T16:16:31;8.90;99.90
23079;DHT22;11707;50.830;4.364;2023-04-01T16:21:46;8.80;99.90
23079;DHT22;11707;50.830;4.364;2023-04-01T16:26:47;8.80;99.90
23079;DHT22;11707;50.830;4.364;2023-04-01T16:29:18;8.80;99.90
23079;DHT22;11707;50.830;4.364;2023-04-01T16:35:16;8.80;99.90
23079;DHT22;11707;50.830;4.364;2023-04-01T16:37:59;8.80;99.90
23079;DHT22;11707;50.830;4.364;2023-04-01T16:57:02;8.90;99.90
23079;DHT22;11707;50.830;4.364;2023-04-01T17:02:35;8.90;99.90
23079;DHT22;11707;50.830;4.364;2023-04-01T17:05:10;8.90;99.90
23079;DHT22;11707;50.830;4.364;2023-04-01T17:08:05;8.90;99.90
23079;DHT22;11707;50.830;4.364;2023-04-01T17:29:37;8.90;99.90
23079;DHT22;11707;50.830;4.364;2023-04-01T17:40:29;8.90;99.90
23079;DHT22;11707;50.830;4.364;2023-04-01T17:45:42;8.80;99.90
23079;DHT22;11707;50.830;4.364;2023-04-01T17:51:17;8.90;99.90
23079;DHT22;11707;50.830;4.364;2023-04-01T18:07:49;8.80;99.90
23079;DHT22;11707;50.830;4.364;2023-04-01T18:15:40;8.90;99.90
23079;DHT22;11707;50.830;4.364;2023-04-01T18:20:54;8.90;99.90
23079;DHT22;11707;50.830;4.364;2023-04-01T18:26:12;8.90;99.90
23079;DHT22;11707;50.830;4.364;2023-04-01T18:28:42;8.90;99.90
23079;DHT22;11707;50.830;4.364;2023-04-01T18:31:19;8.90;99.90
23079;DHT22;11707;50.830;4.364;2023-04-01T18:34:10;8.90;99.90
23079;DHT22;11707;50.830;4.364;2023-04-01T18:39:38;8.90;99.90
23079;DHT22;11707;50.830;4.364;2023-04-01T18:42:29;9.00;99.90
23079;DHT22;11707;50.830;4.364;2023-04-01T18:48:38;8.90;99.90
23079;DHT22;11707;50.830;4.364;2023-04-01T18:54:05;8.90;99.90
23079;DHT22;11707;50.830;4.364;2023-04-01T18:56:41;8.90;99.90
23079;DHT22;11707;50.830;4.364;2023-04-01T18:59:12;8.90;99.90
23079;DHT22;11707;50.830;4.364;2023-04-01T19:04:42;9.00;99.90
23079;DHT22;11707;50.830;4.364;2023-04-01T19:18:46;8.70;99.90
23079;DHT22;11707;50.830;4.364;2023-04-01T19:21:22;8.70;99.90
23079;DHT22;11707;50.830;4.364;2023-04-01T19:37:40;8.70;99.90
23079;DHT22;11707;50.830;4.364;2023-04-01T19:49:34;8.70;99.90
23079;DHT22;11707;50.830;4.364;2023-04-01T19:51:35;8.70;99.90
23079;DHT22;11707;50.830;4.364;2023-04-01T20:04:44;8.80;99.90
23079;DHT22;11707;50.830;4.364;2023-04-01T20:12:56;8.80;99.90
23079;DHT22;11707;50.830;4.364;2023-04-01T20:18:03;8.70;99.90
23079;DHT22;11707;50.830;4.364;2023-04-01T20:20:34;8.70;99.90
23079;DHT22;11707;50.830;4.364;2023-04-01T20:26:04;8.70;99.90
23079;DHT22;11707;50.830;4.364;2023-04-01T20:28:58;8.80;99.90
23079;DHT22;11707;50.830;4.364;2023-04-01T20:31:28;8.80;99.90
23079;DHT22;11707;50.830;4.364;2023-04-01T20:41:55;8.80;99.90
23079;DHT22;11707;50.830;4.364;2023-04-01T20:50:31;8.80;99.90
23079;DHT22;11707;50.830;4.364;2023-04-01T21:04:30;8.70;99.90
23079;DHT22;11707;50.830;4.364;2023-04-01T21:10:12;8.80;99.90
23079;DHT22;11707;50.830;4.364;2023-04-01T21:16:19;8.90;99.90
23079;DHT22;11707;50.830;4.364;2023-04-01T21:18:53;8.90;99.90
23079;DHT22;11707;50.830;4.364;2023-04-01T21:30:01;8.90;99.90
23079;DHT22;11707;50.830;4.364;2023-04-01T21:41:20;9.00;99.90
23079;DHT22;11707;50.830;4.364;2023-04-01T21:44:02;9.00;99.90
23079;DHT22;11707;50.830;4.364;2023-04-01T21:50:06;9.10;99.90
23079;DHT22;11707;50.830;4.364;2023-04-01T22:06:48;9.20;99.90
23079;DHT22;11707;50.830;4.364;2023-04-01T22:09:29;9.20;99.90
23079;DHT22;11707;50.830;4.364;2023-04-01T22:12:05;9.20;99.90
23079;DHT22;11707;50.830;4.364;2023-04-01T22:14:59;9.20;99.90
23079;DHT22;11707;50.830;4.364;2023-04-01T22:23:31;9.30;99.90
23079;DHT22;11707;50.830;4.364;2023-04-01T22:26:12;9.30;99.90
23079;DHT22;11707;50.830;4.364;2023-04-01T22:31:15;9.30;99.90
23079;DHT22;11707;50.830;4.364;2023-04-01T22:48:19;9.00;99.90
23079;DHT22;11707;50.830;4.364;2023-04-01T22:53:28;9.10;99.90
23079;DHT22;11707;50.830;4.364;2023-04-01T22:56:05;9.10;99.90
23079;DHT22;11707;50.830;4.364;2023-04-01T22:59:14;9.10;99.90
23079;DHT22;11707;50.830;4.364;2023-04-01T23:02:20;9.10;99.90
23079;DHT22;11707;50.830;4.364;2023-04-01T23:04:49;9.10;99.90
23079;DHT22;11707;50.830;4.364;2023-04-01T23:09:49;9.10;99.90
23079;DHT22;11707;50.830;4.364;2023-04-01T23:12:19;9.20;99.90
23079;DHT22;11707;50.830;4.364;2023-04-01T23:15:14;9.10;99.90
23079;DHT22;11707;50.830;4.364;2023-04-01T23:17:54;9.10;99.90
23079;DHT22;11707;50.830;4.364;2023-04-01T23:23:26;9.10;99.90
23079;DHT22;11707;50.830;4.364;2023-04-01T23:26:09;9.10;99.90
23079;DHT22;11707;50.830;4.364;2023-04-01T23:31:38;8.90;99.90
23079;DHT22;11707;50.830;4.364;2023-04-01T23:36:48;8.90;99.90
23079;DHT22;11707;50.830;4.364;2023-04-01T23:39:29;8.90;99.90
23079;DHT22;11707;50.830;4.364;2023-04-01T23:42:03;8.90;99.90
23079;DHT22;11707;50.830;4.364;2023-04-01T23:44:29;8.90;99.90
23079;DHT22;11707;50.830;4.364;2023-04-01T23:46:57;9.10;99.90
23079;DHT22;11707;50.830;4.364;2023-04-01T23:49:34;9.00;99.90
23079;DHT22;11707;50.830;4.364;2023-04-01T23:52:22;9.00;99.90
23079;DHT22;11707;50.830;4.364;2023-04-01T23:54:55;9.00;99.90
23079;DHT22;11707;50.830;4.364;2023-04-01T23:57:33;9.00;99.90
